Time;durP1;ratioP1;P1;durP2;ratioP2;P2;SDS_P1;SDS_P2;PMS_P1;PMS_P2;Temp;Humidity;BMP_temperature;BMP_pressure;BME280_temperature;BME280_humidity;BME280_pressure;Samples;Min_cycle;Max_cycle;Signal;HPM_P1;HPM_P2
2021/09/02 00:02:21;;;;;;;17.88;11.82;;;;;;;8.61;54.45;96572.16;4931798;28;20191;-87
2021/09/02 00:04:46;;;;;;;18.20;13.00;;;;;;;8.50;55.65;96576.63;4935047;29;20171;-87
2021/09/02 00:07:11;;;;;;;17.92;13.02;;;;;;;8.41;56.32;96572.19;4943394;29;20107;-86
2021/09/02 00:09:37;;;;;;;15.98;11.32;;;;;;;8.42;55.40;96565.91;4911092;29;20095;-86
2021/09/02 00:12:03;;;;;;;15.98;9.50;;;;;;;8.38;55.79;96570.66;4940375;29;20091;-86
2021/09/02 00:14:28;;;;;;;14.98;11.88;;;;;;;8.31;56.02;96566.88;4937691;29;20096;-86
2021/09/02 00:16:54;;;;;;;15.18;10.30;;;;;;;8.30;54.65;96560.72;4941255;28;20519;-86
2021/09/02 00:19:20;;;;;;;18.40;11.50;;;;;;;8.31;55.29;96558.94;4935834;29;20183;-87
2021/09/02 00:21:46;;;;;;;14.25;10.30;;;;;;;8.28;55.54;96552.09;4931871;29;20158;-86
2021/09/02 00:24:11;;;;;;;14.77;8.85;;;;;;;8.25;55.84;96548.88;4936517;29;20083;-86
2021/09/02 00:26:37;;;;;;;13.45;8.10;;;;;;;8.21;54.87;96550.13;4939359;28;20107;-86
2021/09/02 00:29:02;;;;;;;16.13;11.45;;;;;;;8.11;54.56;96550.13;4932665;28;20076;-86
2021/09/02 00:31:27;;;;;;;12.63;9.10;;;;;;;8.05;54.89;96544.41;4938135;29;20095;-87
2021/09/02 00:33:53;;;;;;;16.50;10.10;;;;;;;8.00;55.39;96553.75;4941803;29;20128;-86
2021/09/02 00:36:18;;;;;;;11.50;7.72;;;;;;;7.97;55.53;96554.03;4916011;29;20072;-86
2021/09/02 00:38:44;;;;;;;8.52;4.88;;;;;;;7.93;52.84;96548.19;4937676;28;20103;-86
2021/09/02 00:41:09;;;;;;;14.85;10.05;;;;;;;7.90;55.69;96551.09;4931747;28;20080;-86
2021/09/02 00:43:41;;;;;;;11.40;6.53;;;;;;;7.85;54.46;96545.38;4936537;29;20745;-86
2021/09/02 00:46:09;;;;;;;14.48;8.95;;;;;;;7.83;56.04;96545.50;4946963;28;20043;-86
2021/09/02 00:48:35;;;;;;;;;;;;;;;7.75;53.04;96546.16;4942960;29;20040;-86
2021/09/02 00:51:00;;;;;;;8.87;6.23;;;;;;;7.78;52.61;96547.72;4941276;28;20009;-86
2021/09/02 00:53:26;;;;;;;16.58;11.63;;;;;;;7.75;54.88;96550.63;4938094;28;20039;-86
2021/09/02 00:55:51;;;;;;;10.00;5.72;;;;;;;7.75;53.29;96550.63;4932701;29;20043;-86
2021/09/02 00:58:20;;;;;;;11.05;7.75;;;;;;;7.74;54.50;96549.78;4929011;29;20046;-86
2021/09/02 01:00:46;;;;;;;14.82;8.50;;;;;;;7.78;53.62;96540.63;4938346;29;20035;-87
2021/09/02 01:03:11;;;;;;;14.32;10.25;;;;;;;7.74;55.75;96551.59;4932681;28;20035;-86
2021/09/02 01:05:37;;;;;;;12.52;7.45;;;;;;;7.76;54.64;96545.16;4921632;29;20130;-86
2021/09/02 01:08:03;;;;;;;12.63;7.75;;;;;;;7.92;54.63;96552.63;4947581;28;20442;-86
2021/09/02 01:10:28;;;;;;;13.43;9.55;;;;;;;8.00;54.80;96551.09;4933863;29;20488;-86
2021/09/02 01:12:54;;;;;;;12.70;9.13;;;;;;;8.08;56.65;96545.09;4934437;28;20086;-86
2021/09/02 01:15:24;;;;;;;13.80;8.70;;;;;;;8.16;55.28;96543.41;4943425;28;20090;-85
2021/09/02 01:17:51;;;;;;;15.43;6.90;;;;;;;8.03;57.98;96549.00;4916173;29;20104;-86
2021/09/02 01:20:18;;;;;;;14.55;7.65;;;;;;;8.16;56.98;96546.06;4945381;28;20517;-86
2021/09/02 01:22:47;;;;;;;11.63;6.72;;;;;;;8.28;54.58;96538.81;4933517;29;20051;-85
2021/09/02 01:25:14;;;;;;;10.40;6.80;;;;;;;8.28;56.50;96532.66;4919484;28;20028;-85
2021/09/02 01:27:42;;;;;;;14.60;9.07;;;;;;;8.34;55.08;96528.63;4939675;29;20055;-85
2021/09/02 01:30:09;;;;;;;11.30;6.20;;;;;;;8.50;55.01;96531.53;4924772;29;20560;-85
2021/09/02 01:32:36;;;;;;;11.45;5.95;;;;;;;8.62;53.70;96529.56;4943664;28;20073;-85
2021/09/02 01:35:01;;;;;;;14.88;8.88;;;;;;;8.63;54.41;96533.03;4935843;28;20131;-86
2021/09/02 01:37:39;;;;;;;13.25;5.63;;;;;;;8.67;53.42;96531.78;4939254;29;20126;-86
2021/09/02 01:40:06;;;;;;;14.43;9.07;;;;;;;8.67;53.86;96535.25;4936678;29;20118;-86
2021/09/02 01:42:32;;;;;;;10.45;5.80;;;;;;;8.67;53.53;96531.78;4913911;29;20040;-87
2021/09/02 01:44:58;;;;;;;9.73;6.13;;;;;;;8.66;53.25;96533.59;4938789;28;20535;-86
2021/09/02 01:47:24;;;;;;;12.32;6.95;;;;;;;8.62;53.60;96532.22;4944116;29;20031;-86
2021/09/02 01:49:50;;;;;;;13.57;7.00;;;;;;;8.64;54.26;96532.06;4937464;29;20399;-86
2021/09/02 01:52:16;;;;;;;12.45;5.80;;;;;;;8.67;53.71;96529.94;4927501;29;20513;-86
2021/09/02 01:54:41;;;;;;;10.27;6.57;;;;;;;8.66;54.52;96528.28;4948749;28;20109;-86
2021/09/02 01:57:07;;;;;;;10.63;5.40;;;;;;;8.66;53.75;96528.28;4930500;28;20059;-86
2021/09/02 01:59:32;;;;;;;13.35;7.85;;;;;;;8.64;53.93;96529.41;4926914;29;20635;-86
2021/09/02 02:01:58;;;;;;;8.15;5.22;;;;;;;8.70;53.38;96526.16;4931189;29;20039;-86
2021/09/02 02:04:23;;;;;;;11.57;7.55;;;;;;;8.70;53.55;96523.50;4948043;28;20135;-86
2021/09/02 02:06:49;;;;;;;9.55;5.75;;;;;;;8.69;53.91;96521.84;4931649;29;20036;-86
2021/09/02 02:09:14;;;;;;;11.07;5.95;;;;;;;8.74;53.92;96511.63;4932884;28;20031;-86
2021/09/02 02:11:39;;;;;;;14.25;8.82;;;;;;;8.66;55.12;96520.31;4932750;29;20496;-86
2021/09/02 02:14:05;;;;;;;13.05;7.40;;;;;;;8.69;53.39;96516.53;4931761;29;20035;-86
2021/09/02 02:16:30;;;;;;;13.35;6.70;;;;;;;8.74;53.37;96516.13;4937757;28;20031;-85
2021/09/02 02:18:56;;;;;;;13.32;8.07;;;;;;;8.71;54.34;96517.25;4932329;29;20135;-86
2021/09/02 02:21:21;;;;;;;11.30;6.18;;;;;;;8.81;54.09;96515.38;4937201;29;20142;-86
2021/09/02 02:23:47;;;;;;;10.57;6.72;;;;;;;8.89;54.36;96513.81;4937570;29;20128;-86
2021/09/02 02:26:12;;;;;;;13.50;6.00;;;;;;;8.94;53.87;96516.88;4933539;29;20134;-86
2021/09/02 02:28:38;;;;;;;12.07;5.93;;;;;;;8.93;53.63;96513.41;4941972;28;20087;-86
2021/09/02 02:31:03;;;;;;;14.80;6.13;;;;;;;9.00;53.63;96505.69;4941069;29;20108;-86
2021/09/02 02:33:28;;;;;;;12.30;6.50;;;;;;;9.01;53.82;96512.69;4943176;28;20108;-86
2021/09/02 02:35:54;;;;;;;12.18;7.45;;;;;;;9.04;54.24;96507.09;4940621;28;20107;-85
2021/09/02 02:38:20;;;;;;;10.90;5.93;;;;;;;9.11;53.60;96503.84;4928878;29;20445;-86
2021/09/02 02:40:45;;;;;;;12.13;6.07;;;;;;;9.10;54.04;96497.69;4942737;29;20072;-86
2021/09/02 02:43:12;;;;;;;12.43;6.15;;;;;;;9.12;53.40;96497.56;4928095;29;20457;-85
2021/09/02 02:45:38;;;;;;;13.45;8.23;;;;;;;9.18;53.26;96502.28;4932054;29;20107;-86
2021/09/02 02:48:04;;;;;;;12.63;6.15;;;;;;;9.19;53.33;96496.78;4942783;29;20157;-85
2021/09/02 02:50:29;;;;;;;11.48;7.00;;;;;;;9.16;53.97;96505.09;4943128;28;20040;-86
2021/09/02 02:52:54;;;;;;;11.95;5.95;;;;;;;9.16;53.61;96499.78;4954075;28;20023;-86
2021/09/02 02:55:20;;;;;;;13.93;7.28;;;;;;;9.11;54.56;96494.03;4921445;29;20071;-86
2021/09/02 02:57:45;;;;;;;10.95;5.72;;;;;;;9.21;53.43;96496.66;4942282;29;20043;-85
2021/09/02 03:00:11;;;;;;;13.57;7.57;;;;;;;9.16;54.14;96490.97;4938026;29;20028;-85
2021/09/02 03:02:37;;;;;;;11.80;6.70;;;;;;;9.22;53.90;96495.69;4932373;29;20043;-86
2021/09/02 03:05:03;;;;;;;13.35;6.45;;;;;;;9.19;54.35;96490.66;4938509;28;20359;-85
2021/09/02 03:07:28;;;;;;;11.00;6.93;;;;;;;9.16;53.78;96489.16;4932046;29;20043;-86
2021/09/02 03:09:53;;;;;;;11.73;6.88;;;;;;;9.20;54.78;96492.34;4931204;29;20112;-86
2021/09/02 03:12:19;;;;;;;15.25;8.93;;;;;;;9.15;55.59;96490.09;4916730;29;20080;-85
2021/09/02 03:14:44;;;;;;;11.88;7.53;;;;;;;9.23;55.05;96485.88;4935838;28;20220;-85
2021/09/02 03:17:10;;;;;;;13.35;7.88;;;;;;;9.19;55.51;96491.47;4946528;28;20111;-86
2021/09/02 03:19:35;;;;;;;15.15;7.75;;;;;;;9.18;55.53;96502.28;4935632;29;20123;-85
2021/09/02 03:22:01;;;;;;;13.07;8.00;;;;;;;9.10;55.96;96488.88;4933924;29;20090;-86
2021/09/02 03:24:27;;;;;;;14.05;8.73;;;;;;;8.99;57.00;96503.19;4934669;29;20339;-85
2021/09/02 03:26:52;;;;;;;15.57;8.00;;;;;;;8.96;57.47;96499.00;4948214;28;20133;-85
2021/09/02 03:29:18;;;;;;;12.45;8.05;;;;;;;9.02;56.99;96502.91;4938211;28;20104;-85
2021/09/02 03:31:43;;;;;;;16.92;8.00;;;;;;;8.93;57.01;96507.22;4923340;29;20084;-85
2021/09/02 03:34:09;;;;;;;16.73;8.80;;;;;;;8.51;56.93;96503.19;4949421;28;20116;-85
2021/09/02 03:36:34;;;;;;;14.25;7.82;;;;;;;8.40;56.87;96514.78;4921064;29;20111;-86
2021/09/02 03:38:59;;;;;;;13.40;8.43;;;;;;;8.12;59.84;96509.34;4920640;29;20114;-85
2021/09/02 03:41:25;;;;;;;16.00;7.75;;;;;;;8.11;59.21;96511.19;4937845;28;20108;-86
2021/09/02 03:43:50;;;;;;;15.18;7.85;;;;;;;8.09;57.43;96504.34;4930126;29;20084;-86
2021/09/02 03:46:16;;;;;;;15.10;8.43;;;;;;;7.93;59.64;96513.72;4955501;28;20096;-86
2021/09/02 03:48:41;;;;;;;15.15;8.43;;;;;;;7.81;59.63;96510.34;4933679;29;20091;-86
2021/09/02 03:51:06;;;;;;;18.48;9.13;;;;;;;7.54;59.65;96507.34;4939928;28;20182;-86
2021/09/02 03:53:32;;;;;;;12.90;7.97;;;;;;;7.51;59.61;96512.91;4926781;28;20183;-86
2021/09/02 03:55:57;;;;;;;13.55;8.20;;;;;;;7.86;60.45;96509.94;4940216;28;20083;-86
2021/09/02 03:58:23;;;;;;;14.15;7.68;;;;;;;7.98;59.30;96511.47;4939410;28;20529;-86
2021/09/02 04:00:48;;;;;;;16.02;8.60;;;;;;;7.71;59.80;96517.41;4931410;29;20470;-86
2021/09/02 04:03:13;;;;;;;14.60;8.00;;;;;;;7.84;60.77;96501.25;4946062;28;20541;-85
2021/09/02 04:05:39;;;;;;;16.67;8.10;;;;;;;7.80;59.22;96500.72;4934367;28;20774;-85
2021/09/02 04:08:04;;;;;;;14.32;7.85;;;;;;;8.11;60.23;96499.72;4971729;28;20095;-85
2021/09/02 04:10:30;;;;;;;15.27;8.73;;;;;;;8.24;59.37;96507.41;4947320;28;20186;-86
2021/09/02 04:12:55;;;;;;;14.98;8.32;;;;;;;8.21;58.72;96502.38;4948198;28;20095;-86
2021/09/02 04:15:21;;;;;;;13.23;8.55;;;;;;;8.42;58.59;96494.25;4929182;29;20111;-85
2021/09/02 04:17:46;;;;;;;16.05;8.63;;;;;;;8.50;58.24;96498.84;4939953;28;20115;-85
2021/09/02 04:20:12;;;;;;;12.15;7.60;;;;;;;8.75;57.07;96492.09;4950240;28;20192;-86
2021/09/02 04:22:37;;;;;;;14.52;8.43;;;;;;;8.90;57.20;96496.91;4942281;29;20202;-86
2021/09/02 04:25:03;;;;;;;12.68;7.65;;;;;;;8.86;56.79;96500.81;4961032;28;20166;-86
2021/09/02 04:27:29;;;;;;;13.38;7.93;;;;;;;8.75;56.52;96497.38;4926200;29;20119;-86
2021/09/02 04:29:54;;;;;;;11.30;7.50;;;;;;;8.66;56.51;96496.44;4955908;28;20182;-85
2021/09/02 04:32:20;;;;;;;13.18;7.57;;;;;;;8.95;55.42;96497.34;4939297;28;20152;-86
2021/09/02 04:34:45;;;;;;;13.95;7.07;;;;;;;8.94;54.81;96499.13;4938512;28;20039;-85
2021/09/02 04:37:10;;;;;;;11.27;7.32;;;;;;;8.97;54.39;96495.38;4934012;28;20055;-85
2021/09/02 04:39:36;;;;;;;14.82;7.38;;;;;;;8.41;56.39;96497.88;4931062;29;20090;-86
2021/09/02 04:42:01;;;;;;;15.13;7.80;;;;;;;8.55;57.02;96505.41;4935488;28;20570;-86
2021/09/02 04:44:27;;;;;;;12.90;7.88;;;;;;;8.40;57.13;96498.88;4969492;28;20150;-85
2021/09/02 04:46:52;;;;;;;14.00;8.23;;;;;;;8.48;57.31;96501.66;4920605;29;20634;-85
2021/09/02 04:49:18;;;;;;;13.68;7.68;;;;;;;8.24;58.62;96502.09;4937616;28;20100;-85
2021/09/02 04:51:43;;;;;;;12.20;7.93;;;;;;;8.12;58.89;96498.75;4932240;29;20092;-85
2021/09/02 04:54:09;;;;;;;12.63;7.63;;;;;;;8.15;59.46;96496.66;4959281;28;20551;-85
2021/09/02 04:56:34;;;;;;;15.85;8.15;;;;;;;8.17;60.30;96504.47;4941894;29;20551;-85
2021/09/02 04:59:00;;;;;;;14.98;8.75;;;;;;;8.22;59.16;96491.63;4941169;28;20115;-85
2021/09/02 05:01:25;;;;;;;12.35;7.57;;;;;;;8.57;58.51;96498.13;4973454;28;20253;-85
2021/09/02 05:03:50;;;;;;;13.50;7.97;;;;;;;8.51;58.87;96496.06;4918397;29;20076;-85
2021/09/02 05:06:16;;;;;;;15.32;8.35;;;;;;;8.67;57.94;96492.78;4930444;28;20112;-85
2021/09/02 05:08:41;;;;;;;14.23;7.95;;;;;;;8.47;57.97;96501.78;4941335;28;20080;-85
2021/09/02 05:11:07;;;;;;;15.77;8.20;;;;;;;8.45;57.42;96499.28;4933521;28;20107;-85
2021/09/02 05:13:32;;;;;;;12.82;7.60;;;;;;;8.60;58.41;96491.69;4966378;28;20236;-85
2021/09/02 05:15:58;;;;;;;14.82;7.75;;;;;;;8.42;58.54;96496.91;4969069;28;20425;-86
2021/09/02 05:18:23;;;;;;;16.50;8.02;;;;;;;8.75;57.40;96494.72;4934457;28;20031;-85
2021/09/02 05:20:49;;;;;;;14.75;7.60;;;;;;;8.99;57.12;96496.06;4941513;28;20036;-85
2021/09/02 05:23:14;;;;;;;15.15;8.00;;;;;;;9.05;56.98;96490.16;4951723;28;20043;-85
2021/09/02 05:25:39;;;;;;;12.30;7.18;;;;;;;9.35;56.37;96494.50;4941820;28;20520;-85
2021/09/02 05:28:05;;;;;;;11.80;6.65;;;;;;;9.47;56.03;96493.31;4943192;28;20570;-86
2021/09/02 05:30:30;;;;;;;10.90;6.72;;;;;;;9.65;55.55;96500.47;4938150;28;20171;-86
2021/09/02 05:32:56;;;;;;;10.65;6.55;;;;;;;9.89;55.07;96501.72;4941645;28;20374;-86
2021/09/02 05:35:21;;;;;;;10.02;7.07;;;;;;;10.07;54.79;96504.38;4938927;29;20035;-86
2021/09/02 05:37:46;;;;;;;13.32;7.13;;;;;;;10.27;54.59;96509.53;4937799;28;20614;-86
2021/09/02 05:40:12;;;;;;;9.70;6.40;;;;;;;10.42;54.29;96502.66;4916540;29;20445;-86
2021/09/02 05:42:38;;;;;;;13.77;6.60;;;;;;;10.79;53.83;96514.06;4967996;28;20108;-85
2021/09/02 05:45:04;;;;;;;12.40;7.18;;;;;;;10.79;53.21;96503.41;4958192;28;20043;-85
2021/09/02 05:47:30;;;;;;;11.32;7.68;;;;;;;10.85;52.98;96512.59;4921724;29;20079;-85
2021/09/02 05:49:55;;;;;;;10.80;7.40;;;;;;;11.06;53.16;96520.22;4964754;28;20116;-85
2021/09/02 05:52:21;;;;;;;11.80;8.07;;;;;;;11.18;51.79;96515.44;4950143;28;20110;-86
2021/09/02 05:54:52;;;;;;;12.05;7.63;;;;;;;11.29;52.88;96511.66;4933967;28;20166;-85
2021/09/02 05:57:18;;;;;;;14.77;8.98;;;;;;;11.45;51.27;96510.88;4969496;28;20532;-85
2021/09/02 05:59:43;;;;;;;14.35;8.52;;;;;;;11.47;51.03;96519.56;4946801;29;20087;-86
2021/09/02 06:02:09;;;;;;;13.52;6.97;;;;;;;11.77;51.76;96524.50;4968501;28;21108;-85
2021/09/02 06:04:34;;;;;;;13.40;7.90;;;;;;;11.61;51.21;96518.13;4928480;29;20094;-85
2021/09/02 06:07:00;;;;;;;13.57;8.75;;;;;;;11.84;50.34;96528.19;4946816;28;20102;-85
2021/09/02 06:09:25;;;;;;;17.55;9.95;;;;;;;11.80;50.48;96528.66;4925650;28;20764;-85
2021/09/02 06:11:50;;;;;;;13.80;8.93;;;;;;;12.09;50.08;96533.56;4947282;29;20553;-86
2021/09/02 06:14:16;;;;;;;14.57;9.57;;;;;;;12.21;49.50;96536.72;4919449;29;20126;-85
2021/09/02 06:16:41;;;;;;;14.38;8.73;;;;;;;12.17;49.62;96531.91;4936738;29;20075;-85
2021/09/02 06:19:07;;;;;;;13.85;9.73;;;;;;;12.38;48.71;96524.22;4939808;28;20148;-85
2021/09/02 06:21:32;;;;;;;12.70;9.32;;;;;;;12.48;48.80;96528.56;4944696;28;20524;-85
2021/09/02 06:23:58;;;;;;;12.38;8.73;;;;;;;12.63;48.84;96536.75;4932764;29;20546;-85
2021/09/02 06:26:23;;;;;;;12.95;7.32;;;;;;;12.63;50.95;96532.25;4930263;28;20119;-86
2021/09/02 06:28:49;;;;;;;13.75;9.00;;;;;;;12.77;48.25;96533.38;4913345;29;20083;-85
2021/09/02 06:31:14;;;;;;;13.05;8.75;;;;;;;12.89;48.17;96527.69;4941009;28;20104;-86
2021/09/02 06:33:40;;;;;;;12.38;7.85;;;;;;;12.99;48.26;96525.66;4945493;28;20108;-86
2021/09/02 06:36:05;;;;;;;11.27;6.72;;;;;;;13.12;47.70;96519.78;4953237;28;20087;-85
2021/09/02 06:38:31;;;;;;;13.63;7.70;;;;;;;13.21;47.71;96517.94;4961302;28;20107;-85
2021/09/02 06:40:56;;;;;;;12.95;8.32;;;;;;;13.28;46.50;96518.06;4936674;28;20457;-86
2021/09/02 06:43:21;;;;;;;12.50;8.07;;;;;;;13.36;46.66;96523.38;4968972;28;20039;-85
2021/09/02 06:45:47;;;;;;;12.70;8.68;;;;;;;13.55;46.32;96522.13;4920633;29;20691;-85
2021/09/02 06:48:12;;;;;;;11.60;7.70;;;;;;;13.68;46.28;96520.72;4940210;29;20042;-86
2021/09/02 06:50:38;;;;;;;14.95;8.35;;;;;;;13.83;45.90;96520.81;4935838;28;20383;-85
2021/09/02 06:53:03;;;;;;;12.88;6.75;;;;;;;13.93;46.07;96521.44;4938963;28;20062;-86
2021/09/02 06:55:30;;;;;;;11.82;7.00;;;;;;;14.02;46.21;96522.22;4926868;29;20741;-93
2021/09/02 06:57:55;;;;;;;14.68;7.30;;;;;;;14.21;45.20;96522.75;4904764;29;20112;-92
2021/09/02 07:00:21;;;;;;;11.82;7.75;;;;;;;14.33;45.26;96531.19;4913126;29;20159;-92
2021/09/02 07:02:46;;;;;;;12.07;7.85;;;;;;;14.26;44.69;96531.09;4912708;29;20104;-92
2021/09/02 07:05:12;;;;;;;11.43;7.32;;;;;;;14.32;44.73;96530.34;4915284;28;20104;-92
2021/09/02 07:07:37;;;;;;;8.63;6.10;;;;;;;14.33;45.83;96531.19;4937134;28;20194;-93
2021/09/02 07:10:03;;;;;;;11.63;7.93;;;;;;;14.43;43.98;96531.81;4945364;28;20887;-93
2021/09/02 07:12:29;;;;;;;11.98;7.55;;;;;;;14.54;44.21;96533.22;4918537;28;20111;-92
2021/09/02 07:14:54;;;;;;;14.63;8.32;;;;;;;14.60;44.23;96528.97;4945636;28;20119;-93
2021/09/02 07:17:20;;;;;;;16.20;7.47;;;;;;;14.49;45.79;96526.72;4917092;28;20039;-93
2021/09/02 07:19:45;;;;;;;12.93;8.73;;;;;;;14.27;45.75;96537.25;4914649;29;20679;-93
2021/09/02 07:22:11;;;;;;;13.90;9.13;;;;;;;14.10;46.16;96536.56;4939112;28;20178;-93
2021/09/02 07:24:36;;;;;;;13.18;10.20;;;;;;;14.19;45.65;96532.81;4949446;28;20079;-93
2021/09/02 07:27:03;;;;;;;17.02;11.40;;;;;;;14.38;45.60;96531.47;4932724;28;20399;-93
2021/09/02 07:29:29;;;;;;;14.93;10.43;;;;;;;14.54;46.18;96537.72;4950053;28;20043;-92
2021/09/02 07:31:54;;;;;;;15.48;10.18;;;;;;;15.05;44.37;96534.41;4933726;28;20106;-93
2021/09/02 07:34:20;;;;;;;18.48;12.15;;;;;;;15.04;44.28;96531.91;4918071;29;20128;-92
2021/09/02 07:36:45;;;;;;;18.60;13.02;;;;;;;14.97;44.70;96538.03;4924731;29;20039;-93
2021/09/02 07:39:11;;;;;;;17.55;10.57;;;;;;;15.32;44.65;96536.63;4910935;29;20445;-92
2021/09/02 07:41:36;;;;;;;13.52;7.88;;;;;;;15.22;44.35;96545.81;4927934;29;20412;-92
2021/09/02 07:44:02;;;;;;;13.27;9.57;;;;;;;15.48;43.98;96544.50;4920678;29;20499;-92
2021/09/02 07:46:28;;;;;;;16.67;12.25;;;;;;;15.42;43.71;96545.25;4913532;29;20039;-92
2021/09/02 07:48:53;;;;;;;15.82;11.32;;;;;;;15.54;43.31;96536.72;4910828;29;20465;-93
2021/09/02 07:51:19;;;;;;;18.10;10.95;;;;;;;15.66;42.90;96540.59;4913758;29;20035;-93
2021/09/02 07:53:44;;;;;;;16.20;10.90;;;;;;;15.82;42.74;96544.94;4948198;28;20030;-93
2021/09/02 07:56:10;;;;;;;16.60;11.95;;;;;;;16.03;42.52;96553.19;4949677;28;20142;-92
2021/09/02 07:58:35;;;;;;;19.40;12.55;;;;;;;15.72;43.34;96547.06;4934113;28;20314;-92
2021/09/02 08:01:01;;;;;;;18.10;13.25;;;;;;;16.09;42.87;96549.75;4928846;28;20620;-92
2021/09/02 08:03:26;;;;;;;14.88;10.20;;;;;;;16.26;41.95;96545.78;4938907;28;20084;-93
2021/09/02 08:05:52;;;;;;;12.77;8.75;;;;;;;16.54;42.50;96554.97;4933408;28;20069;-92
2021/09/02 08:08:18;;;;;;;15.57;12.00;;;;;;;16.63;41.42;96545.72;4934664;28;20282;-93
2021/09/02 08:10:44;;;;;;;13.23;9.55;;;;;;;16.89;41.37;96551.50;4934091;28;20050;-93
2021/09/02 08:13:10;;;;;;;19.70;13.25;;;;;;;16.58;41.54;96555.41;4923907;28;20027;-93
2021/09/02 08:15:36;;;;;;;14.85;11.15;;;;;;;16.74;41.19;96547.06;4911524;29;20042;-93
2021/09/02 08:18:03;;;;;;;18.43;12.13;;;;;;;16.92;40.56;96548.44;4934253;28;20508;-93
2021/09/02 08:20:28;;;;;;;11.43;5.57;;;;;;;17.09;41.14;96542.72;4934629;28;20054;-93
2021/09/02 08:22:54;;;;;;;12.75;9.43;;;;;;;17.01;42.01;96551.81;4951368;28;20427;-93
2021/09/02 08:25:19;;;;;;;13.00;9.38;;;;;;;17.61;40.02;96545.94;4931620;28;20178;-93
2021/09/02 08:27:45;;;;;;;11.60;6.45;;;;;;;17.47;40.52;96555.00;4931522;28;20087;-92
2021/09/02 08:30:12;;;;;;;12.55;7.10;;;;;;;17.44;39.57;96553.53;4930376;28;20805;-93
2021/09/02 08:32:37;;;;;;;17.98;13.25;;;;;;;17.52;40.79;96547.16;4933667;28;20415;-93
2021/09/02 08:35:03;;;;;;;11.50;7.18;;;;;;;17.85;40.24;96554.56;4930987;28;20114;-92
2021/09/02 08:37:28;;;;;;;19.77;12.82;;;;;;;17.66;39.52;96548.88;4950145;28;20246;-93
2021/09/02 08:39:54;;;;;;;18.20;13.05;;;;;;;17.83;39.11;96550.38;4934713;29;20087;-93
2021/09/02 08:42:19;;;;;;;22.25;15.80;;;;;;;18.20;38.39;96545.53;4936827;28;20114;-93
2021/09/02 08:44:45;;;;;;;21.33;13.73;;;;;;;18.22;38.76;96551.53;4937236;29;20097;-93
2021/09/02 08:47:11;;;;;;;16.77;9.02;;;;;;;18.61;38.12;96551.00;4950970;28;20508;-93
2021/09/02 08:49:36;;;;;;;14.93;9.93;;;;;;;18.92;38.22;96555.78;4935780;29;20186;-92
2021/09/02 08:52:02;;;;;;;20.90;13.32;;;;;;;18.64;38.26;96553.28;4932441;29;20095;-92
2021/09/02 08:54:28;;;;;;;20.75;12.85;;;;;;;19.21;36.06;96552.81;4927080;29;20035;-92
2021/09/02 08:56:53;;;;;;;16.25;10.40;;;;;;;18.91;36.74;96555.97;4922592;29;20110;-86
2021/09/02 08:59:19;;;;;;;14.23;7.78;;;;;;;19.05;37.06;96554.94;4936787;28;20412;-87
2021/09/02 09:01:48;;;;;;;13.48;6.50;;;;;;;19.41;37.22;96551.97;4928860;28;20111;-86
2021/09/02 09:04:15;;;;;;;17.70;10.93;;;;;;;19.41;36.43;96555.50;4933929;29;20118;-86
2021/09/02 09:06:41;;;;;;;17.23;10.83;;;;;;;19.43;37.07;96561.53;4942587;28;20053;-86
2021/09/02 09:09:16;;;;;;;19.17;11.13;;;;;;;19.92;36.18;96563.81;4940487;28;20793;-86
2021/09/02 09:11:47;;;;;;;17.40;10.07;;;;;;;19.92;35.06;96554.91;4934339;29;20045;-93
2021/09/02 09:14:24;;;;;;;26.33;17.52;;;;;;;19.87;35.49;96560.94;4923664;29;20051;-93
2021/09/02 09:16:51;;;;;;;27.90;17.42;;;;;;;19.90;34.67;96556.97;4924115;29;20606;-93
2021/09/02 09:19:55;;;;;;;24.75;16.70;;;;;;;20.33;35.02;96564.44;4922592;29;20575;-93
2021/09/02 09:22:21;;;;;;;17.13;10.35;;;;;;;20.61;33.90;96560.50;4930713;29;20103;-93
2021/09/02 09:25:14;;;;;;;19.03;13.97;;;;;;;20.41;34.51;96557.13;4920970;28;20034;-92
2021/09/02 09:27:43;;;;;;;15.55;9.43;;;;;;;20.91;33.57;96552.81;4943985;29;20085;-93
2021/09/02 09:30:24;;;;;;;21.77;14.32;;;;;;;21.11;33.08;96556.16;4943233;29;20107;-93
2021/09/02 09:32:57;;;;;;;9.35;5.55;;;;;;;21.41;33.18;96556.53;4960378;28;20045;-90
2021/09/02 09:35:27;;;;;;;18.13;11.07;;;;;;;21.71;33.04;96558.44;4981699;28;20115;-93
2021/09/02 09:38:18;;;;;;;17.77;12.20;;;;;;;21.86;31.79;96558.88;4963142;28;20114;-93
2021/09/02 09:40:45;;;;;;;14.85;10.20;;;;;;;22.08;32.36;96550.31;4956492;28;20094;-94
2021/09/02 09:43:21;;;;;;;24.75;14.88;;;;;;;21.84;31.80;96544.75;4982829;28;20058;-93
2021/09/02 09:45:50;;;;;;;19.10;12.90;;;;;;;21.95;31.28;96547.75;4942892;29;20118;-93
2021/09/02 09:48:24;;;;;;;21.42;13.52;;;;;;;21.67;31.84;96554.53;4952095;29;20535;-93
2021/09/02 09:51:14;;;;;;;13.80;9.40;;;;;;;22.27;30.64;96558.38;4942318;28;20461;-93
2021/09/02 09:53:41;;;;;;;22.30;13.38;;;;;;;22.20;30.71;96555.75;4970298;28;20089;-93
2021/09/02 09:56:07;;;;;;;28.90;19.45;;;;;;;22.03;31.00;96550.16;4936130;29;20087;-93
2021/09/02 09:58:33;;;;;;;28.42;19.70;;;;;;;21.68;31.53;96553.50;4930127;29;20108;-93
2021/09/02 10:01:02;;;;;;;24.88;15.57;;;;;;;21.86;31.21;96547.22;4957766;28;20076;-93
2021/09/02 10:03:29;;;;;;;23.70;15.98;;;;;;;22.33;30.76;96549.31;4930052;29;20099;-92
2021/09/02 10:05:55;;;;;;;15.57;10.02;;;;;;;22.56;30.29;96560.50;4979914;28;20087;-94
2021/09/02 10:08:21;;;;;;;23.58;14.80;;;;;;;22.06;31.67;96555.13;4930760;29;20660;-93
2021/09/02 10:10:47;;;;;;;15.73;9.38;;;;;;;21.76;30.80;96551.28;4928844;28;20521;-94
2021/09/02 10:13:35;;;;;;;32.80;23.10;;;;;;;21.93;31.27;96548.00;4971228;28;20048;-94
2021/09/02 10:16:21;;;;;;;31.73;21.95;;;;;;;21.77;31.48;96549.41;4959217;29;20035;-94
2021/09/02 10:18:46;;;;;;;17.30;10.63;;;;;;;22.15;31.06;96542.91;4978204;28;20055;-94
2021/09/02 10:21:58;;;;;;;32.08;21.90;;;;;;;22.07;31.25;96547.81;4950931;28;20043;-94
2021/09/02 10:25:18;;;;;;;29.35;19.48;;;;;;;21.86;31.32;96547.22;4961946;28;20063;-94
2021/09/02 10:28:55;;;;;;;19.48;12.02;;;;;;;22.47;30.27;96552.66;4965605;29;20035;-94
2021/09/02 10:31:52;;;;;;;19.20;13.07;;;;;;;22.74;30.65;96554.97;4975717;28;20098;-94
2021/09/02 10:34:35;;;;;;;12.43;9.10;;;;;;;22.94;29.63;96544.84;4957528;28;20554;-94
2021/09/02 10:37:43;;;;;;;23.83;16.92;;;;;;;22.82;29.50;96547.53;4937805;28;20047;-94
2021/09/02 10:41:01;;;;;;;20.05;14.32;;;;;;;22.68;29.83;96546.94;4955823;28;20032;-94
2021/09/02 10:44:28;;;;;;;19.23;13.43;;;;;;;23.02;29.79;96548.00;4960203;29;20059;-94
2021/09/02 10:46:57;;;;;;;9.45;5.88;;;;;;;23.16;28.90;96542.38;4965593;28;20118;-93
2021/09/02 10:50:04;;;;;;;20.90;13.70;;;;;;;22.56;29.54;96538.81;4980038;28;20233;-94
2021/09/02 10:53:11;;;;;;;10.50;6.20;;;;;;;22.95;29.75;96535.63;4962012;29;20589;-94
2021/09/02 10:56:00;;;;;;;14.60;10.82;;;;;;;22.94;29.06;96537.50;4968019;23;20165;-75
2021/09/02 10:58:39;;;;;;;16.63;11.00;;;;;;;22.98;29.20;96535.97;4949315;28;20175;-74
2021/09/02 11:01:39;;;;;;;12.88;8.65;;;;;;;22.73;28.50;96531.59;4954688;28;20068;-74
2021/09/02 11:04:11;;;;;;;12.93;8.45;;;;;;;23.21;28.72;96541.69;4929758;28;20095;-74
2021/09/02 11:06:47;;;;;;;14.30;9.80;;;;;;;23.21;29.19;96544.41;4933615;28;20561;-74
2021/09/02 11:09:30;;;;;;;16.60;10.65;;;;;;;23.02;29.29;96537.16;4964807;28;20034;-74
2021/09/02 11:11:56;;;;;;;13.00;9.57;;;;;;;23.36;28.75;96539.31;4950764;28;20206;-74
2021/09/02 11:14:21;;;;;;;14.23;9.27;;;;;;;23.49;28.59;96535.47;4965946;28;20539;-74
2021/09/02 11:16:47;;;;;;;13.93;9.17;;;;;;;24.13;27.47;96539.19;4965575;28;20207;-75
2021/09/02 11:19:12;;;;;;;10.47;7.57;;;;;;;24.44;27.36;96545.22;4964801;28;20106;-75
2021/09/02 11:21:38;;;;;;;15.43;10.00;;;;;;;24.16;27.35;96540.59;4965063;28;20118;-76
2021/09/02 11:24:10;;;;;;;11.70;7.27;;;;;;;24.25;26.54;96531.00;4946991;29;20083;-75
2021/09/02 11:26:38;;;;;;;9.95;5.97;;;;;;;24.19;27.21;96535.50;4964990;28;20115;-75
2021/09/02 11:29:07;;;;;;;11.80;9.07;;;;;;;24.89;26.17;96531.78;4945593;28;20343;-74
2021/09/02 11:31:32;;;;;;;8.52;5.60;;;;;;;25.16;25.78;96533.84;4948508;28;20057;-74
2021/09/02 11:33:58;;;;;;;10.37;6.27;;;;;;;25.38;25.98;96533.03;4948542;28;20117;-76